Time;durP1;ratioP1;P1;durP2;ratioP2;P2;SDS_P1;SDS_P2;PMS_P1;PMS_P2;Temp;Humidity;BMP_temperature;BMP_pressure;BME280_temperature;BME280_humidity;BME280_pressure;Samples;Min_cycle;Max_cycle;Signal;HPM_P1;HPM_P2
2022/11/21 00:01:23;;;;;;;3.53;1.27;;;24.00;99.90;;;;;;5007189;28;20226;-76
2022/11/21 00:03:55;;;;;;;1.75;0.43;;;24.00;99.90;;;;;;5009393;28;20211;-78
2022/11/21 00:06:30;;;;;;;2.60;0.40;;;23.90;99.90;;;;;;5013324;28;20237;-82
2022/11/21 00:09:09;;;;;;;3.40;0.60;;;24.10;99.90;;;;;;4995413;28;20215;-78
2022/11/21 00:11:42;;;;;;;0.55;0.20;;;24.10;99.90;;;;;;5006584;28;20195;-77
2022/11/21 00:14:20;;;;;;;2.35;0.40;;;24.10;99.90;;;;;;5003482;28;20297;-82
2022/11/21 00:16:55;;;;;;;1.70;0.45;;;24.20;99.90;;;;;;5011406;28;20213;-77
2022/11/21 00:19:26;;;;;;;1.38;0.20;;;24.20;99.90;;;;;;5010865;28;20734;-78
2022/11/21 00:21:57;;;;;;;0.80;0.20;;;24.30;99.90;;;;;;5004024;28;20195;-85
2022/11/21 00:24:32;;;;;;;1.25;0.30;;;24.10;99.90;;;;;;5005525;28;20230;-76
2022/11/21 00:27:03;;;;;;;1.45;0.30;;;24.30;99.90;;;;;;5011295;28;20281;-75
2022/11/21 00:29:36;;;;;;;1.90;0.30;;;24.60;99.90;;;;;;5011731;28;20187;-76
2022/11/21 00:32:07;;;;;;;1.67;0.30;;;24.50;99.90;;;;;;5004399;28;20580;-78
2022/11/21 00:34:51;;;;;;;1.48;0.30;;;24.40;99.90;;;;;;5012612;28;20593;-79
2022/11/21 00:37:22;;;;;;;1.40;0.20;;;24.10;99.90;;;;;;5000607;28;20202;-77
2022/11/21 00:39:55;;;;;;;0.82;0.30;;;24.10;99.90;;;;;;5007572;28;20725;-77
2022/11/21 00:42:29;;;;;;;1.38;0.40;;;24.10;99.90;;;;;;5015103;28;20209;-74
2022/11/21 00:45:03;;;;;;;3.60;0.43;;;24.00;99.90;;;;;;5018505;28;20191;-85
2022/11/21 00:47:37;;;;;;;1.63;0.30;;;24.00;99.90;;;;;;5006990;28;20636;-75
2022/11/21 00:50:14;;;;;;;1.50;0.30;;;24.20;99.90;;;;;;4988362;28;20248;-79
2022/11/21 00:52:47;;;;;;;3.90;0.40;;;24.40;99.90;;;;;;5017943;28;20206;-80
2022/11/21 00:55:21;;;;;;;3.00;0.98;;;24.60;99.90;;;;;;5013222;28;20254;-78
2022/11/21 00:57:52;;;;;;;3.22;0.60;;;24.80;99.90;;;;;;5015051;28;20201;-75
2022/11/21 01:00:28;;;;;;;0.73;0.25;;;24.60;99.90;;;;;;5014087;28;20187;-82
2022/11/21 01:02:59;;;;;;;2.15;0.30;;;24.60;99.90;;;;;;5018803;28;20289;-77
2022/11/21 01:05:32;;;;;;;2.13;0.30;;;24.80;99.90;;;;;;5014761;28;20290;-80
2022/11/21 01:08:03;;;;;;;0.95;0.30;;;24.70;99.90;;;;;;4994402;28;20306;-78
2022/11/21 01:10:38;;;;;;;2.50;0.40;;;24.70;99.90;;;;;;5013238;28;20273;-75
2022/11/21 01:13:18;;;;;;;0.50;0.30;;;24.60;99.90;;;;;;5017320;28;20321;-85
2022/11/21 01:15:50;;;;;;;0.93;0.28;;;24.30;99.90;;;;;;5014272;28;20565;-78
2022/11/21 01:18:24;;;;;;;1.10;0.20;;;24.10;99.90;;;;;;5013638;28;20271;-84
2022/11/21 01:20:55;;;;;;;3.22;0.40;;;24.10;99.90;;;;;;4994069;28;20274;-77
2022/11/21 01:23:30;;;;;;;2.42;0.30;;;24.00;99.90;;;;;;5014372;28;20286;-80
2022/11/21 01:26:10;;;;;;;2.80;0.25;;;24.00;99.90;;;;;;5005823;28;20187;-79
2022/11/21 01:28:43;;;;;;;1.05;0.28;;;24.00;99.90;;;;;;5020564;28;20259;-84
2022/11/21 01:31:17;;;;;;;1.95;0.40;;;24.10;99.90;;;;;;5015973;28;20249;-86
2022/11/21 01:33:49;;;;;;;0.80;0.30;;;24.20;99.90;;;;;;4997973;28;20226;-77
2022/11/21 01:36:23;;;;;;;0.55;0.30;;;24.20;99.90;;;;;;5011314;28;20205;-78
2022/11/21 01:38:55;;;;;;;3.00;0.25;;;24.20;99.90;;;;;;5007589;28;20230;-80
2022/11/21 01:41:33;;;;;;;4.60;0.20;;;24.30;99.90;;;;;;5012906;28;20246;-79
2022/11/21 01:44:05;;;;;;;2.60;0.30;;;24.30;99.90;;;;;;5012929;28;20205;-78
2022/11/21 01:46:36;;;;;;;1.05;0.20;;;24.00;99.90;;;;;;5008115;28;20413;-75
2022/11/21 01:49:11;;;;;;;1.30;0.20;;;23.90;99.90;;;;;;5012900;28;20227;-77
2022/11/21 01:51:49;;;;;;;3.22;0.30;;;23.70;99.90;;;;;;5009843;28;20197;-80
2022/11/21 01:54:25;;;;;;;0.10;0.10;;;23.70;99.90;;;;;;5008034;28;20211;-76
2022/11/21 01:57:06;;;;;;;1.95;0.17;;;23.70;99.90;;;;;;5014886;28;20198;-86
2022/11/21 01:59:42;;;;;;;1.45;0.20;;;23.90;99.90;;;;;;5014044;28;20205;-78
2022/11/21 02:02:16;;;;;;;0.88;0.30;;;24.00;99.90;;;;;;5013894;28;20203;-80
2022/11/21 02:04:49;;;;;;;2.67;0.45;;;24.00;99.90;;;;;;5012743;28;20569;-81
2022/11/21 02:07:26;;;;;;;3.42;0.60;;;23.80;99.90;;;;;;5010410;28;20568;-75
2022/11/21 02:10:02;;;;;;;3.13;0.57;;;23.70;99.90;;;;;;5008377;28;20692;-79
2022/11/21 02:12:41;;;;;;;1.48;0.60;;;23.70;99.90;;;;;;5009120;28;20298;-77
2022/11/21 02:15:14;;;;;;;2.80;0.22;;;23.70;99.90;;;;;;5008697;28;20218;-75
2022/11/21 02:17:46;;;;;;;3.20;0.85;;;23.70;99.90;;;;;;5014060;28;20662;-78
2022/11/21 02:20:21;;;;;;;2.40;0.30;;;23.40;99.90;;;;;;5013910;28;20195;-77
2022/11/21 02:22:58;;;;;;;2.72;0.30;;;23.40;99.90;;;;;;5013457;28;20433;-83
2022/11/21 02:25:35;;;;;;;1.00;0.30;;;23.40;99.90;;;;;;5014138;28;20205;-75
2022/11/21 02:28:09;;;;;;;1.83;0.20;;;23.30;99.90;;;;;;5010464;28;20290;-76
2022/11/21 02:30:44;;;;;;;2.63;0.25;;;23.50;99.90;;;;;;5011142;28;20194;-76
2022/11/21 02:33:17;;;;;;;1.33;0.35;;;23.60;99.90;;;;;;5009266;28;20340;-81
2022/11/21 02:35:57;;;;;;;1.85;0.40;;;23.40;99.90;;;;;;5006052;28;20238;-76
2022/11/21 02:38:31;;;;;;;4.63;0.45;;;23.10;99.90;;;;;;5001672;28;20563;-79
2022/11/21 02:41:12;;;;;;;1.25;0.28;;;23.20;99.90;;;;;;5005476;28;20657;-83
2022/11/21 02:43:54;;;;;;;1.75;0.30;;;23.20;99.90;;;;;;5007954;28;20288;-78
2022/11/21 02:46:25;;;;;;;3.10;0.32;;;23.20;99.90;;;;;;5006423;28;20571;-74
2022/11/21 02:48:58;;;;;;;1.40;0.22;;;23.00;99.90;;;;;;5007709;28;20191;-77
2022/11/21 02:51:29;;;;;;;1.10;0.20;;;23.00;99.90;;;;;;5005034;28;20310;-74
2022/11/21 02:54:00;;;;;;;1.60;0.38;;;22.90;99.90;;;;;;5006119;28;20191;-74
2022/11/21 02:56:34;;;;;;;0.45;0.13;;;23.00;99.90;;;;;;5011569;28;20277;-77
2022/11/21 02:59:07;;;;;;;1.50;0.60;;;23.00;99.90;;;;;;5008399;28;20249;-75
2022/11/21 03:01:38;;;;;;;1.58;0.30;;;23.10;99.90;;;;;;5008244;28;20709;-80
2022/11/21 03:04:16;;;;;;;1.95;0.30;;;23.00;99.90;;;;;;5009346;28;20245;-76
2022/11/21 03:06:46;;;;;;;1.90;0.28;;;23.10;99.90;;;;;;5005217;28;20264;-77
2022/11/21 03:09:18;;;;;;;1.98;0.30;;;23.30;99.90;;;;;;5012075;28;20203;-77
2022/11/21 03:11:54;;;;;;;1.75;0.30;;;23.30;99.90;;;;;;5009747;28;21057;-76
2022/11/21 03:14:26;;;;;;;0.75;0.20;;;23.40;99.90;;;;;;5010744;28;20253;-77
2022/11/21 03:16:58;;;;;;;0.32;0.15;;;23.30;99.90;;;;;;5012025;28;20197;-82
2022/11/21 03:19:31;;;;;;;1.95;0.30;;;23.30;99.90;;;;;;5011851;28;20209;-74
2022/11/21 03:22:04;;;;;;;1.38;0.30;;;23.20;99.90;;;;;;5007085;28;20187;-76
2022/11/21 03:24:43;;;;;;;0.88;0.17;;;23.20;99.90;;;;;;5012589;28;20559;-75
2022/11/21 03:27:18;;;;;;;0.93;0.20;;;23.20;99.90;;;;;;5011319;28;20241;-74
2022/11/21 03:29:49;;;;;;;4.22;0.50;;;23.10;99.90;;;;;;5005612;28;20280;-81
2022/11/21 03:32:20;;;;;;;2.88;0.30;;;23.20;99.90;;;;;;5010508;28;20761;-86
2022/11/21 03:34:53;;;;;;;1.25;0.30;;;23.20;99.90;;;;;;5007477;28;20245;-79
2022/11/21 03:37:27;;;;;;;2.28;0.35;;;23.30;99.90;;;;;;5011240;28;20222;-82
2022/11/21 03:39:58;;;;;;;2.22;0.80;;;23.40;99.90;;;;;;5010317;28;20679;-79
2022/11/21 03:42:32;;;;;;;2.03;0.40;;;23.40;99.90;;;;;;5009894;28;20195;-76
2022/11/21 03:45:03;;;;;;;0.68;0.30;;;23.20;99.90;;;;;;5012761;28;20281;-79
2022/11/21 03:47:35;;;;;;;0.45;0.20;;;23.30;99.90;;;;;;5006933;28;20230;-75
2022/11/21 03:50:06;;;;;;;0.60;0.20;;;23.00;99.90;;;;;;5008227;28;20285;-81
2022/11/21 03:52:37;;;;;;;0.75;0.35;;;22.70;99.90;;;;;;5006555;28;20261;-76
2022/11/21 03:55:09;;;;;;;1.70;0.50;;;22.50;99.90;;;;;;5011343;28;20252;-76
2022/11/21 03:57:42;;;;;;;1.52;0.57;;;22.40;99.90;;;;;;5013079;28;20195;-75
2022/11/21 04:00:13;;;;;;;1.42;0.20;;;22.30;99.90;;;;;;5012614;28;20314;-74
2022/11/21 04:02:44;;;;;;;1.73;0.30;;;22.50;99.90;;;;;;5005558;28;20233;-73
2022/11/21 04:05:15;;;;;;;1.20;0.30;;;22.50;99.90;;;;;;5011031;28;20203;-75
2022/11/21 04:07:48;;;;;;;1.25;0.32;;;22.60;99.90;;;;;;5001713;28;20187;-76
2022/11/21 04:10:19;;;;;;;1.35;0.40;;;22.80;99.90;;;;;;5008955;28;20317;-75
2022/11/21 04:12:52;;;;;;;1.77;0.40;;;22.50;99.90;;;;;;5013099;28;20195;-76
2022/11/21 04:15:23;;;;;;;1.17;0.30;;;22.50;99.90;;;;;;5011163;28;20218;-79
2022/11/21 04:17:54;;;;;;;0.90;0.28;;;22.40;99.90;;;;;;5007181;28;20183;-74
2022/11/21 04:20:27;;;;;;;2.05;0.50;;;22.30;99.90;;;;;;5012738;28;20277;-75
2022/11/21 04:22:58;;;;;;;1.75;0.50;;;22.30;99.90;;;;;;5009273;28;20317;-76
2022/11/21 04:25:30;;;;;;;2.83;0.52;;;22.50;99.90;;;;;;5011318;28;20199;-75
2022/11/21 04:28:03;;;;;;;5.18;0.50;;;22.50;99.90;;;;;;5012269;28;20277;-76
2022/11/21 04:30:35;;;;;;;1.08;0.50;;;22.70;99.90;;;;;;5006184;28;20191;-82
2022/11/21 04:33:08;;;;;;;2.05;0.50;;;22.60;99.90;;;;;;5009461;28;20221;-78
2022/11/21 04:35:38;;;;;;;1.17;0.30;;;22.70;99.90;;;;;;5011261;28;20311;-83
2022/11/21 04:38:11;;;;;;;0.22;0.13;;;22.60;99.90;;;;;;5010430;28;20203;-81
2022/11/21 04:40:44;;;;;;;0.55;0.20;;;22.50;99.90;;;;;;5005849;28;20221;-80
2022/11/21 04:43:16;;;;;;;3.25;0.40;;;22.60;99.90;;;;;;5011819;28;20191;-76
2022/11/21 04:45:47;;;;;;;0.50;0.20;;;22.50;99.90;;;;;;5009564;28;20190;-87
2022/11/21 04:48:18;;;;;;;1.67;0.30;;;22.40;99.90;;;;;;5008419;28;20198;-81
2022/11/21 04:50:52;;;;;;;1.42;0.35;;;22.40;99.90;;;;;;5014554;28;20243;-82
2022/11/21 04:53:23;;;;;;;0.20;0.20;;;22.30;99.90;;;;;;5012574;28;20198;-79
2022/11/21 04:55:54;;;;;;;1.83;0.50;;;22.20;99.90;;;;;;5010875;28;20218;-79
2022/11/21 04:58:28;;;;;;;3.03;0.50;;;22.20;99.90;;;;;;5009232;28;20203;-77
2022/11/21 05:01:01;;;;;;;2.47;0.55;;;22.30;99.90;;;;;;5012239;28;20298;-84
2022/11/21 05:03:34;;;;;;;2.22;0.40;;;22.30;99.90;;;;;;5013427;28;20285;-79
2022/11/21 05:06:05;;;;;;;1.15;0.50;;;22.30;99.90;;;;;;5008647;28;20222;-80
2022/11/21 05:08:37;;;;;;;4.18;0.30;;;22.10;99.90;;;;;;5015055;28;20218;-79
2022/11/21 05:13:59;;;;;;;0.90;0.30;;;21.80;99.90;;;;;;5008825;28;20330;-76
2022/11/21 05:16:30;;;;;;;0.57;0.15;;;21.80;99.90;;;;;;5006994;28;20222;-76
2022/11/21 05:19:01;;;;;;;1.45;0.38;;;21.90;99.90;;;;;;5011727;28;20665;-84
2022/11/21 05:21:32;;;;;;;2.97;0.47;;;21.90;99.90;;;;;;5014117;28;20195;-77
2022/11/21 05:24:05;;;;;;;2.03;0.40;;;21.70;99.90;;;;;;5007305;28;20221;-77
2022/11/21 05:26:36;;;;;;;1.58;0.30;;;21.40;99.40;;;;;;5009033;28;20191;-80
2022/11/21 05:29:09;;;;;;;5.55;0.40;;;21.20;99.60;;;;;;5004504;28;20219;-80
2022/11/21 05:31:40;;;;;;;2.03;0.50;;;21.30;99.90;;;;;;5011693;28;20642;-76
2022/11/21 05:34:11;;;;;;;1.00;0.30;;;21.30;99.90;;;;;;5013314;28;20231;-84
2022/11/21 05:36:42;;;;;;;0.90;0.30;;;21.30;99.90;;;;;;5014907;28;20269;-82
2022/11/21 05:39:13;;;;;;;2.33;0.40;;;21.40;99.90;;;;;;5013341;28;20556;-89
2022/11/21 05:41:44;;;;;;;1.25;0.45;;;21.40;99.90;;;;;;5013523;28;20261;-84
2022/11/21 05:44:15;;;;;;;1.85;0.28;;;21.50;99.90;;;;;;5012145;28;20187;-82
2022/11/21 05:46:46;;;;;;;1.52;0.30;;;21.50;99.90;;;;;;5015465;28;20195;-79
2022/11/21 05:49:18;;;;;;;1.75;0.40;;;21.70;99.90;;;;;;5014848;28;20650;-81
2022/11/21 05:51:49;;;;;;;2.78;0.43;;;21.70;99.90;;;;;;5008939;28;20199;-84
2022/11/21 05:54:20;;;;;;;2.90;0.50;;;21.50;99.70;;;;;;5007234;28;20231;-87
2022/11/21 05:56:50;;;;;;;0.70;0.20;;;21.50;99.60;;;;;;5014920;28;20245;-84
2022/11/21 05:59:23;;;;;;;0.55;0.40;;;21.40;99.60;;;;;;5013121;28;20282;-85
2022/11/21 06:04:55;;;;;;;1.10;0.22;;;21.50;99.30;;;;;;4972164;28;20570;-81
2022/11/21 06:07:27;;;;;;;2.25;0.38;;;21.60;99.20;;;;;;4970232;28;20247;-82
2022/11/21 06:09:58;;;;;;;1.23;0.20;;;21.50;99.10;;;;;;4992004;28;20203;-83
2022/11/21 06:12:30;;;;;;;0.65;0.30;;;21.50;99.00;;;;;;5014419;28;20196;-84
2022/11/21 06:15:03;;;;;;;1.83;0.28;;;21.50;98.60;;;;;;5012121;28;20213;-79
2022/11/21 06:17:37;;;;;;;0.88;0.32;;;21.50;98.50;;;;;;5003060;28;20196;-77
2022/11/21 06:20:09;;;;;;;0.60;0.30;;;21.60;98.80;;;;;;5009818;28;20202;-85
2022/11/21 06:22:40;;;;;;;0.70;0.38;;;21.60;98.70;;;;;;5014277;28;20202;-77
2022/11/21 06:25:11;;;;;;;2.33;0.40;;;21.60;97.80;;;;;;5007404;28;20195;-76
2022/11/21 06:27:42;;;;;;;1.20;0.30;;;21.60;97.80;;;;;;5013118;28;20568;-82
2022/11/21 06:30:15;;;;;;;1.85;0.50;;;21.50;98.10;;;;;;5013885;28;20286;-81
2022/11/21 06:32:46;;;;;;;1.00;0.20;;;21.50;98.20;;;;;;5009962;28;20223;-79
2022/11/21 06:35:19;;;;;;;2.13;0.30;;;21.50;98.40;;;;;;5012466;28;20235;-77
2022/11/21 06:37:49;;;;;;;2.80;0.50;;;21.40;98.60;;;;;;5013896;28;20217;-80
2022/11/21 06:40:22;;;;;;;2.05;0.50;;;21.40;98.10;;;;;;5011073;28;20961;-80
2022/11/21 06:42:57;;;;;;;1.85;0.25;;;21.40;98.10;;;;;;5010076;28;20187;-80
2022/11/21 06:45:33;;;;;;;2.03;0.35;;;21.30;98.30;;;;;;5011778;28;20198;-80
2022/11/21 06:48:05;;;;;;;1.05;0.30;;;21.20;98.40;;;;;;5003352;28;20194;-81
2022/11/21 06:50:38;;;;;;;0.52;0.22;;;21.30;98.50;;;;;;5007736;28;20282;-75
2022/11/21 06:53:09;;;;;;;1.23;0.35;;;21.20;98.00;;;;;;5005944;28;20289;-84
2022/11/21 06:55:40;;;;;;;1.83;0.50;;;21.00;97.70;;;;;;5013546;28;20655;-78
2022/11/21 06:58:13;;;;;;;2.63;0.40;;;20.90;97.70;;;;;;5007347;28;20626;-78
2022/11/21 07:00:47;;;;;;;2.17;0.50;;;20.90;97.80;;;;;;5012488;28;20275;-78
2022/11/21 07:03:18;;;;;;;1.98;0.40;;;20.80;97.80;;;;;;5010662;28;20654;-78
2022/11/21 07:05:57;;;;;;;1.50;0.50;;;20.70;98.10;;;;;;5010511;28;20630;-76
2022/11/21 07:08:29;;;;;;;1.35;0.40;;;20.70;98.40;;;;;;5008926;28;20210;-76
2022/11/21 07:11:04;;;;;;;3.40;0.40;;;20.70;98.50;;;;;;5011486;28;20202;-81
2022/11/21 07:13:34;;;;;;;3.28;0.52;;;20.70;98.70;;;;;;5007304;28;20658;-79
2022/11/21 07:16:09;;;;;;;1.05;0.20;;;20.60;98.50;;;;;;5008561;28;20794;-81
2022/11/21 07:18:40;;;;;;;3.50;0.35;;;20.50;97.80;;;;;;5010299;28;20206;-77
2022/11/21 07:21:12;;;;;;;2.95;0.32;;;20.40;98.00;;;;;;5010696;28;20211;-82
2022/11/21 07:23:43;;;;;;;2.20;0.40;;;20.40;98.40;;;;;;5004291;28;20278;-80
2022/11/21 07:26:14;;;;;;;0.82;0.30;;;20.40;98.70;;;;;;5009445;28;20207;-79
2022/11/21 07:28:45;;;;;;;2.00;0.68;;;20.30;99.10;;;;;;5009766;28;20191;-80
2022/11/21 07:31:28;;;;;;;1.38;0.40;;;20.40;99.70;;;;;;5006414;28;20191;-83
2022/11/21 07:33:59;;;;;;;1.05;0.30;;;20.30;99.40;;;;;;5010598;28;20387;-79
2022/11/21 07:36:31;;;;;;;2.38;0.40;;;20.20;98.70;;;;;;5012894;28;20230;-78
2022/11/21 07:39:03;;;;;;;2.28;0.40;;;20.20;98.20;;;;;;5011952;28;20654;-80
2022/11/21 07:41:34;;;;;;;1.08;0.40;;;20.20;98.70;;;;;;4996424;28;20283;-78
2022/11/21 07:44:05;;;;;;;1.05;0.30;;;20.20;98.70;;;;;;5007173;28;20274;-83
2022/11/21 07:46:39;;;;;;;1.27;0.45;;;20.20;99.10;;;;;;5013677;28;20234;-82
2022/11/21 07:49:10;;;;;;;1.55;0.70;;;20.20;99.10;;;;;;5009551;28;20289;-79
2022/11/21 07:51:42;;;;;;;2.63;0.40;;;20.30;99.20;;;;;;5018662;28;20194;-78
2022/11/21 07:54:13;;;;;;;2.50;0.50;;;20.30;99.30;;;;;;4995088;28;20192;-77
2022/11/21 07:56:47;;;;;;;2.78;0.47;;;20.30;99.00;;;;;;5010184;28;20240;-76
2022/11/21 07:59:20;;;;;;;2.47;0.52;;;20.10;98.80;;;;;;5005194;28;20253;-81
2022/11/21 08:01:54;;;;;;;2.25;0.32;;;20.10;98.90;;;;;;5003242;28;20199;-77
2022/11/21 08:04:26;;;;;;;2.03;0.40;;;20.00;99.00;;;;;;5007403;28;20240;-81
2022/11/21 08:06:57;;;;;;;1.67;0.65;;;19.90;98.90;;;;;;5003438;28;20627;-76
2022/11/21 08:09:33;;;;;;;1.45;0.50;;;19.70;98.80;;;;;;5012078;28;20281;-87
2022/11/21 08:12:05;;;;;;;0.35;0.25;;;19.60;98.80;;;;;;5013616;28;20273;-76
2022/11/21 08:14:37;;;;;;;2.72;0.40;;;19.40;98.20;;;;;;5019815;28;20263;-82
2022/11/21 08:17:11;;;;;;;1.98;0.32;;;19.20;98.00;;;;;;5008777;28;20254;-80
2022/11/21 08:19:42;;;;;;;1.45;0.40;;;19.20;97.90;;;;;;5010144;28;20281;-82
2022/11/21 08:22:13;;;;;;;1.40;0.50;;;19.10;98.00;;;;;;5019658;28;20198;-85
2022/11/21 08:24:47;;;;;;;2.95;0.38;;;19.00;98.00;;;;;;4995412;28;20191;-83
2022/11/21 08:27:20;;;;;;;2.15;0.47;;;18.90;98.10;;;;;;5010837;28;20202;-84
2022/11/21 08:29:52;;;;;;;2.28;0.55;;;18.80;98.30;;;;;;5015674;28;20241;-79
2022/11/21 08:32:26;;;;;;;1.83;0.43;;;18.80;98.60;;;;;;5014253;28;20225;-78
2022/11/21 08:35:00;;;;;;;2.72;0.60;;;18.70;98.90;;;;;;5005294;28;20261;-77
2022/11/21 08:37:31;;;;;;;1.48;0.50;;;18.60;99.10;;;;;;5008663;28;20255;-77
2022/11/21 08:40:03;;;;;;;0.85;0.30;;;18.60;99.40;;;;;;5008228;28;20260;-76
2022/11/21 08:42:34;;;;;;;1.38;0.50;;;18.60;99.50;;;;;;5006850;28;20720;-78
2022/11/21 08:45:06;;;;;;;0.68;0.40;;;18.60;99.60;;;;;;5009729;28;20274;-77
2022/11/21 08:47:47;;;;;;;2.05;0.40;;;18.50;99.80;;;;;;4995345;28;20225;-84
2022/11/21 08:50:22;;;;;;;1.30;0.30;;;18.40;99.90;;;;;;5008143;28;20206;-77
2022/11/21 08:53:00;;;;;;;3.22;0.70;;;18.30;99.90;;;;;;5006304;28;20237;-79
2022/11/21 08:55:31;;;;;;;1.35;0.43;;;18.20;99.90;;;;;;5012277;28;20282;-79
2022/11/21 08:58:05;;;;;;;1.77;0.40;;;18.20;99.90;;;;;;5009175;28;20302;-78
2022/11/21 09:00:41;;;;;;;2.50;0.50;;;18.20;99.90;;;;;;5007849;28;20282;-83
2022/11/21 09:03:19;;;;;;;0.82;0.30;;;18.10;99.90;;;;;;5004996;28;20282;-80
2022/11/21 09:05:50;;;;;;;2.60;0.40;;;18.00;99.90;;;;;;5011749;28;20343;-77
2022/11/21 09:08:21;;;;;;;0.77;0.40;;;18.00;99.90;;;;;;5011444;28;20234;-77
2022/11/21 09:11:04;;;;;;;3.90;0.50;;;18.00;99.90;;;;;;5012532;28;20282;-81
2022/11/21 09:13:36;;;;;;;1.30;0.32;;;17.80;99.90;;;;;;5006132;28;20198;-78
2022/11/21 09:18:58;;;;;;;1.58;0.40;;;17.70;99.90;;;;;;4979642;28;20210;-77
2022/11/21 09:21:29;;;;;;;3.75;0.55;;;17.70;99.90;;;;;;5006311;28;20201;-76
2022/11/21 09:24:00;;;;;;;1.75;0.63;;;17.60;99.90;;;;;;5011605;28;20291;-75
2022/11/21 09:26:32;;;;;;;2.70;0.70;;;17.60;99.90;;;;;;5012176;28;20197;-81
2022/11/21 09:29:06;;;;;;;1.70;0.60;;;17.60;99.90;;;;;;5004457;28;20191;-77
2022/11/21 09:31:37;;;;;;;1.13;0.50;;;17.50;99.90;;;;;;5011404;28;20250;-77
2022/11/21 09:34:12;;;;;;;1.95;0.40;;;17.50;99.90;;;;;;5013187;28;20286;-81
2022/11/21 09:36:44;;;;;;;3.05;0.50;;;17.50;99.90;;;;;;5012554;28;20572;-76
2022/11/21 09:39:16;;;;;;;1.50;0.52;;;17.40;99.90;;;;;;5010046;28;20254;-79
2022/11/21 09:41:58;;;;;;;1.48;0.50;;;17.40;99.90;;;;;;5011652;28;20281;-78
2022/11/21 09:44:56;;;;;;;0.75;0.30;;;17.40;99.90;;;;;;5008685;28;20206;-75
2022/11/21 09:47:29;;;;;;;3.72;0.70;;;17.30;99.90;;;;;;5011807;28;20293;-79
2022/11/21 09:50:06;;;;;;;0.93;0.45;;;17.30;99.90;;;;;;5008177;28;20271;-78
2022/11/21 09:52:43;;;;;;;3.00;0.43;;;17.30;99.90;;;;;;5012749;28;20199;-77
2022/11/21 09:55:27;;;;;;;2.10;0.45;;;17.20;99.90;;;;;;5014491;28;20281;-76
2022/11/21 09:57:58;;;;;;;1.17;0.43;;;17.20;99.90;;;;;;5013559;28;20218;-78
2022/11/21 10:00:29;;;;;;;0.65;0.30;;;17.20;99.90;;;;;;5009172;28;20184;-80
2022/11/21 10:03:01;;;;;;;1.30;0.77;;;17.10;99.90;;;;;;5012934;28;20205;-75
2022/11/21 10:05:43;;;;;;;0.88;0.38;;;17.10;99.90;;;;;;5009984;28;20194;-82
2022/11/21 10:08:24;;;;;;;1.60;0.50;;;17.10;99.90;;;;;;5004533;28;20196;-75
2022/11/21 10:10:59;;;;;;;1.10;0.40;;;17.10;99.90;;;;;;5011956;28;20195;-76
2022/11/21 10:13:48;;;;;;;3.40;0.50;;;17.10;99.90;;;;;;5002021;28;20194;-79
2022/11/21 10:16:27;;;;;;;2.00;0.50;;;17.00;99.90;;;;;;5005066;28;20211;-81
2022/11/21 10:19:16;;;;;;;0.82;0.30;;;17.00;99.90;;;;;;5014455;28;20281;-77
2022/11/21 10:22:19;;;;;;;1.17;0.40;;;17.00;99.90;;;;;;5009368;28;20202;-80
2022/11/21 10:24:58;;;;;;;1.60;0.45;;;17.00;99.90;;;;;;5009819;28;20207;-82
2022/11/21 10:27:39;;;;;;;2.22;0.45;;;17.00;99.90;;;;;;5010377;28;20203;-81
2022/11/21 10:30:19;;;;;;;1.75;0.50;;;17.00;99.90;;;;;;5007042;28;20278;-80
2022/11/21 10:32:53;;;;;;;1.92;0.38;;;16.90;99.90;;;;;;5010751;28;20690;-80
2022/11/21 10:35:26;;;;;;;1.73;0.60;;;16.80;99.90;;;;;;5011397;28;20225;-83
2022/11/21 10:38:04;;;;;;;1.50;0.50;;;16.80;99.90;;;;;;5005175;28;20224;-80
2022/11/21 10:40:39;;;;;;;0.52;0.30;;;16.80;99.90;;;;;;5011924;28;20198;-79
2022/11/21 10:46:10;;;;;;;1.70;0.82;;;16.80;99.90;;;;;;5000187;28;20202;-80
2022/11/21 10:48:42;;;;;;;2.25;0.50;;;16.80;99.90;;;;;;5010860;28;20191;-76
2022/11/21 10:51:37;;;;;;;1.00;0.40;;;16.80;99.90;;;;;;5006783;28;20234;-77
2022/11/21 10:57:07;;;;;;;1.70;0.50;;;16.70;99.90;;;;;;5007172;28;20688;-77
2022/11/21 10:59:39;;;;;;;2.45;0.40;;;16.70;99.90;;;;;;5013319;28;20191;-81
2022/11/21 11:02:25;;;;;;;3.47;0.55;;;16.60;99.90;;;;;;5006156;28;20233;-79
2022/11/21 11:05:25;;;;;;;1.25;0.40;;;16.60;99.90;;;;;;5013825;28;20206;-78
2022/11/21 11:08:10;;;;;;;1.42;0.50;;;16.50;99.90;;;;;;5007410;28;20287;-81
2022/11/21 11:10:47;;;;;;;1.90;0.60;;;16.60;99.90;;;;;;5011451;28;20680;-81
2022/11/21 11:13:37;;;;;;;1.20;0.40;;;16.50;99.90;;;;;;5013937;28;20222;-77
2022/11/21 11:16:16;;;;;;;1.73;0.40;;;16.50;99.90;;;;;;5013933;28;20195;-78
2022/11/21 11:18:52;;;;;;;1.77;0.47;;;16.50;99.90;;;;;;5012097;28;20286;-76
2022/11/21 11:21:28;;;;;;;0.55;0.30;;;16.50;99.90;;;;;;5012819;28;20206;-81
2022/11/21 11:24:23;;;;;;;2.22;0.60;;;16.40;99.90;;;;;;5005025;28;20628;-79
2022/11/21 11:27:01;;;;;;;2.92;0.40;;;16.40;99.90;;;;;;5008266;28;20256;-77
2022/11/21 11:29:34;;;;;;;2.15;0.50;;;16.40;99.90;;;;;;5011554;28;20238;-75
2022/11/21 11:32:14;;;;;;;1.55;0.50;;;16.30;99.90;;;;;;5007705;28;20219;-79
2022/11/21 11:34:57;;;;;;;2.63;0.65;;;16.30;99.90;;;;;;5005649;28;20231;-77
2022/11/21 11:37:36;;;;;;;2.40;0.50;;;16.20;99.90;;;;;;4995553;28;20290;-76
2022/11/21 11:40:20;;;;;;;1.60;0.40;;;16.10;99.90;;;;;;5010707;28;20727;-80
2022/11/21 11:49:17;;;;;;;1.20;0.30;;;16.00;99.90;;;;;;4991867;28;20210;-79
2022/11/21 11:51:53;;;;;;;1.75;0.30;;;15.90;99.90;;;;;;5006166;28;20202;-76
2022/11/21 11:54:28;;;;;;;0.57;0.28;;;15.90;99.90;;;;;;5012192;28;20221;-76
2022/11/21 11:57:01;;;;;;;1.00;0.40;;;15.80;99.90;;;;;;5009112;28;20244;-75
2022/11/21 11:59:40;;;;;;;1.73;0.47;;;15.70;99.90;;;;;;5011508;28;20467;-76
2022/11/21 12:02:22;;;;;;;0.77;0.38;;;15.60;99.90;;;;;;5007639;28;20612;-76
2022/11/21 12:05:00;;;;;;;1.67;0.65;;;15.50;99.90;;;;;;5011889;28;20199;-76
2022/11/21 12:07:36;;;;;;;1.58;0.80;;;15.40;99.90;;;;;;5006347;28;20206;-80
2022/11/21 12:10:12;;;;;;;2.90;0.70;;;15.40;99.90;;;;;;5010061;28;20190;-81
2022/11/21 12:12:49;;;;;;;1.63;0.90;;;15.30;99.90;;;;;;5012773;28;20193;-80
2022/11/21 12:18:22;;;;;;;3.83;2.08;;;15.20;99.90;;;;;;5003442;28;20229;-79
2022/11/21 12:21:02;;;;;;;4.80;3.33;;;15.10;99.90;;;;;;5010438;28;20266;-76
2022/11/21 12:23:37;;;;;;;2.28;2.00;;;15.10;99.90;;;;;;5004120;28;20268;-76
2022/11/21 12:26:34;;;;;;;1.67;0.90;;;15.10;99.90;;;;;;5009476;28;20238;-81
2022/11/21 12:29:20;;;;;;;0.75;0.40;;;15.10;99.90;;;;;;5004450;28;20657;-76
2022/11/21 12:32:10;;;;;;;2.78;0.30;;;15.10;99.90;;;;;;5003997;28;20309;-78
2022/11/21 12:35:01;;;;;;;0.40;0.22;;;15.10;99.90;;;;;;5009504;28;20273;-79
2022/11/21 12:37:41;;;;;;;0.70;0.25;;;15.00;99.90;;;;;;5009332;28;20543;-76
2022/11/21 12:40:27;;;;;;;0.52;0.30;;;15.00;99.90;;;;;;5006178;28;20189;-76
2022/11/21 12:43:11;;;;;;;3.55;0.35;;;14.90;99.90;;;;;;5007042;28;20250;-79
2022/11/21 12:45:46;;;;;;;0.55;0.28;;;14.80;99.90;;;;;;5011852;28;20186;-79
2022/11/21 12:55:20;;;;;;;2.17;0.60;;;14.60;99.90;;;;;;5003832;28;20250;-76
2022/11/21 12:58:10;;;;;;;2.10;0.43;;;14.50;99.90;;;;;;5004001;28;20218;-79
2022/11/21 13:00:55;;;;;;;1.20;0.50;;;14.50;99.90;;;;;;5009238;28;20187;-78
2022/11/21 13:03:56;;;;;;;1.65;0.50;;;14.40;99.90;;;;;;5012198;28;20187;-76
2022/11/21 13:06:30;;;;;;;0.30;0.30;;;14.40;99.90;;;;;;5014074;28;20604;-78
2022/11/21 13:09:05;;;;;;;1.20;0.50;;;14.40;99.90;;;;;;5015575;28;20237;-76
2022/11/21 13:12:00;;;;;;;0.93;0.20;;;14.30;99.90;;;;;;5015416;28;20277;-77
2022/11/21 13:14:46;;;;;;;0.70;0.20;;;14.30;99.90;;;;;;5016022;28;20195;-78
2022/11/21 13:17:26;;;;;;;1.23;0.30;;;14.30;99.90;;;;;;5015315;28;20211;-77
2022/11/21 13:20:06;;;;;;;0.30;0.30;;;14.30;99.90;;;;;;5015750;28;20195;-76
2022/11/21 13:22:59;;;;;;;1.33;0.52;;;14.20;99.90;;;;;;5008627;28;20653;-77
2022/11/21 13:25:50;;;;;;;1.65;0.40;;;14.10;99.90;;;;;;5015191;28;20253;-77
2022/11/21 13:28:41;;;;;;;1.15;0.47;;;14.10;99.90;;;;;;5014031;28;20221;-75
2022/11/21 13:31:33;;;;;;;1.10;0.50;;;14.10;99.90;;;;;;5009799;28;20293;-76
2022/11/21 13:34:05;;;;;;;0.77;0.20;;;14.10;99.90;;;;;;5017597;28;20218;-78
2022/11/21 13:36:45;;;;;;;1.40;0.50;;;14.10;99.90;;;;;;5018941;28;20231;-80
2022/11/21 13:39:40;;;;;;;0.95;0.32;;;14.10;99.90;;;;;;5022547;28;20214;-76
2022/11/21 13:45:22;;;;;;;2.17;0.40;;;14.10;99.90;;;;;;5007298;28;20205;-77
2022/11/21 13:48:19;;;;;;;2.05;0.30;;;14.00;99.90;;;;;;4994104;28;20213;-76
2022/11/21 13:51:13;;;;;;;1.65;0.25;;;14.00;99.90;;;;;;5015419;28;20647;-79
2022/11/21 13:54:14;;;;;;;1.00;0.20;;;14.00;99.90;;;;;;5011859;28;20262;-77
2022/11/21 13:57:05;;;;;;;1.08;0.30;;;14.00;99.90;;;;;;5012087;28;20210;-76
2022/11/21 13:59:52;;;;;;;0.52;0.20;;;14.00;99.90;;;;;;5011584;28;20199;-80
2022/11/21 14:02:53;;;;;;;0.63;0.30;;;13.90;99.90;;;;;;5006441;28;20199;-77
2022/11/21 14:05:49;;;;;;;0.73;0.30;;;13.80;99.90;;;;;;5009557;28;20205;-78